createdAt,value
2018-02-16T00:01:08.393Z,95.60
2018-02-16T00:03:37.229Z,95.60
2018-02-16T00:06:05.288Z,95.60
2018-02-16T00:08:34.088Z,95.60
2018-02-16T00:11:02.914Z,95.60
2018-02-16T00:13:30.948Z,95.60
2018-02-16T00:15:59.004Z,95.70
2018-02-16T00:18:27.061Z,95.70
2018-02-16T00:20:55.097Z,95.70
2018-02-16T00:23:23.170Z,95.70
2018-02-16T00:25:51.200Z,95.80
2018-02-16T00:28:19.272Z,95.80
2018-02-16T00:30:48.086Z,96.00
2018-02-16T00:33:16.132Z,96.00
2018-02-16T00:35:44.187Z,96.10
2018-02-16T00:38:12.224Z,96.10
2018-02-16T00:40:41.040Z,95.90
2018-02-16T00:43:09.105Z,95.80
2018-02-16T00:45:37.908Z,95.80
2018-02-16T00:48:06.737Z,95.80
2018-02-16T00:50:34.803Z,95.70
2018-02-16T00:53:03.593Z,95.80
2018-02-16T00:55:32.407Z,95.70
2018-02-16T00:58:01.219Z,95.80
2018-02-16T01:00:29.264Z,95.80
2018-02-16T01:02:57.324Z,95.80
2018-02-16T01:05:25.356Z,95.70
2018-02-16T01:07:54.176Z,95.70
2018-02-16T01:10:22.244Z,95.70
2018-02-16T01:12:51.063Z,95.50
2018-02-16T01:15:19.108Z,95.40
2018-02-16T01:17:47.148Z,95.50
2018-02-16T01:20:15.208Z,95.30
2018-02-16T01:22:43.261Z,95.10
2018-02-16T01:25:11.300Z,94.90
2018-02-16T01:27:39.355Z,95.10
2018-02-16T01:30:07.393Z,95.20
2018-02-16T01:32:35.446Z,95.30
2018-02-16T01:35:03.497Z,95.40
2018-02-16T01:37:32.305Z,95.70
2018-02-16T01:40:01.146Z,95.70
2018-02-16T01:42:29.176Z,95.70
2018-02-16T01:44:58.008Z,96.00
2018-02-16T01:47:26.071Z,96.00
2018-02-16T01:50:05.731Z,96.20
2018-02-16T01:52:34.563Z,96.20
2018-02-16T01:55:02.537Z,96.20
2018-02-16T01:57:30.548Z,96.30
2018-02-16T01:59:58.544Z,96.70
2018-02-16T02:02:26.588Z,96.50
2018-02-16T02:04:54.583Z,96.90
2018-02-16T02:07:22.591Z,96.60
2018-02-16T02:09:50.588Z,96.70
2018-02-16T02:12:19.360Z,96.20
2018-02-16T02:14:47.431Z,96.50
2018-02-16T02:17:15.424Z,96.40
2018-02-16T02:19:43.443Z,96.50
2018-02-16T02:22:12.209Z,96.20
2018-02-16T02:24:40.211Z,96.10
2018-02-16T02:27:08.217Z,95.90
2018-02-16T02:29:36.975Z,95.90
2018-02-16T02:32:04.997Z,95.90
2018-02-16T02:34:33.757Z,96.10
2018-02-16T02:37:01.769Z,96.00
2018-02-16T02:39:30.537Z,96.20
2018-02-16T02:41:58.540Z,96.20
2018-02-16T02:44:26.558Z,96.20
2018-02-16T02:46:55.404Z,96.30
2018-02-16T02:49:23.401Z,96.30
2018-02-16T02:51:51.423Z,96.40
2018-02-16T02:54:19.445Z,96.40
2018-02-16T02:56:47.444Z,96.30
2018-02-16T02:59:15.456Z,96.30
2018-02-16T03:01:44.251Z,96.30
2018-02-16T03:04:12.224Z,96.30
2018-02-16T03:06:40.236Z,96.30
2018-02-16T03:09:08.248Z,96.20
2018-02-16T03:11:36.240Z,96.20
2018-02-16T03:14:04.248Z,96.20
2018-02-16T03:16:32.256Z,96.00
2018-02-16T03:19:01.044Z,96.00
2018-02-16T03:21:29.040Z,96.00
2018-02-16T03:23:57.811Z,96.10
2018-02-16T03:26:25.800Z,96.10
2018-02-16T03:28:53.804Z,96.10
2018-02-16T03:31:22.572Z,96.20
2018-02-16T03:33:50.560Z,96.20
2018-02-16T03:36:20.258Z,96.30
2018-02-16T03:38:48.276Z,96.20
2018-02-16T03:41:16.271Z,96.10
2018-02-16T03:43:45.053Z,95.60
2018-02-16T03:46:13.052Z,95.60
2018-02-16T03:48:41.823Z,95.70
2018-02-16T03:51:09.837Z,95.60
2018-02-16T03:53:38.616Z,95.80
2018-02-16T03:56:06.620Z,95.70
2018-02-16T03:58:35.387Z,96.00
2018-02-16T04:01:03.408Z,96.00
2018-02-16T04:03:32.188Z,95.90
2018-02-16T04:06:00.192Z,95.90
2018-02-16T04:08:28.965Z,96.10
2018-02-16T04:10:56.957Z,96.10
2018-02-16T04:13:24.965Z,96.20
2018-02-16T04:15:53.728Z,96.30
2018-02-16T04:18:21.736Z,96.30
2018-02-16T04:20:50.520Z,96.40
2018-02-16T04:23:18.520Z,96.70
2018-02-16T04:25:47.289Z,96.60
2018-02-16T04:28:15.280Z,96.30
2018-02-16T04:30:43.288Z,96.10
2018-02-16T04:33:12.064Z,96.10
2018-02-16T04:35:40.068Z,96.10
2018-02-16T04:38:08.828Z,96.20
2018-02-16T04:40:36.839Z,96.10
2018-02-16T04:43:04.859Z,96.20
2018-02-16T04:45:32.888Z,96.20
2018-02-16T04:48:00.908Z,96.30
2018-02-16T04:50:29.684Z,96.50
2018-02-16T04:52:57.696Z,96.80
2018-02-16T04:55:26.472Z,96.50
2018-02-16T04:57:54.481Z,96.50
2018-02-16T05:00:23.253Z,96.40
2018-02-16T05:02:51.248Z,96.30
2018-02-16T05:05:20.036Z,96.30
2018-02-16T05:07:48.036Z,96.30
2018-02-16T05:10:16.827Z,96.20
2018-02-16T05:12:44.832Z,96.20
2018-02-16T05:15:12.838Z,96.00
2018-02-16T05:17:40.852Z,96.00
2018-02-16T05:20:08.849Z,96.00
2018-02-16T05:22:36.864Z,96.00
2018-02-16T05:25:05.637Z,96.00
2018-02-16T05:27:33.632Z,96.00
2018-02-16T05:30:02.447Z,96.10
2018-02-16T05:32:31.204Z,96.30
2018-02-16T05:34:59.212Z,96.20
2018-02-16T05:37:27.224Z,96.30
2018-02-16T05:39:55.849Z,96.50
2018-02-16T05:42:23.860Z,96.50
2018-02-16T05:44:51.852Z,96.50
2018-02-16T05:47:19.860Z,96.70
2018-02-16T05:49:48.628Z,96.30
2018-02-16T05:52:16.633Z,96.20
2018-02-16T05:54:45.484Z,96.40
2018-02-16T05:57:13.488Z,96.40
2018-02-16T05:59:41.490Z,96.40
2018-02-16T06:02:10.487Z,96.50
2018-02-16T06:04:38.504Z,96.70
2018-02-16T06:07:06.497Z,96.60
2018-02-16T06:09:34.512Z,96.70
2018-02-16T06:12:02.516Z,96.70
2018-02-16T06:14:30.526Z,96.70
2018-02-16T06:16:59.288Z,96.90
2018-02-16T06:19:27.297Z,96.90
2018-02-16T06:21:56.119Z,97.00
2018-02-16T06:24:24.920Z,97.00
2018-02-16T06:26:52.934Z,97.00
2018-02-16T06:29:20.940Z,97.10
2018-02-16T06:31:48.945Z,97.20
2018-02-16T06:34:17.722Z,97.30
2018-02-16T06:36:45.733Z,97.20
2018-02-16T06:39:13.732Z,97.20
2018-02-16T06:41:41.724Z,97.50
2018-02-16T06:44:10.665Z,97.20
2018-02-16T06:46:38.668Z,97.10
2018-02-16T06:49:06.680Z,96.90
2018-02-16T06:51:35.448Z,97.10
2018-02-16T06:54:03.464Z,97.10
2018-02-16T06:56:31.459Z,97.10
2018-02-16T06:58:59.465Z,97.20
2018-02-16T07:01:27.466Z,97.20
2018-02-16T07:03:55.492Z,97.10
2018-02-16T07:06:24.266Z,97.20
2018-02-16T07:08:52.267Z,97.20
2018-02-16T07:11:21.036Z,97.10
2018-02-16T07:13:49.054Z,97.00
2018-02-16T07:16:17.040Z,97.00
2018-02-16T07:18:45.831Z,97.10
2018-02-16T07:21:14.614Z,97.10
2018-02-16T07:23:42.604Z,97.00
2018-02-16T07:26:10.612Z,97.00
2018-02-16T07:28:38.613Z,97.20
2018-02-16T07:31:06.634Z,96.80
2018-02-16T07:33:34.617Z,96.70
2018-02-16T07:36:02.629Z,96.40
2018-02-16T07:38:31.389Z,96.40
2018-02-16T07:40:59.392Z,96.30
2018-02-16T07:43:27.408Z,96.70
2018-02-16T07:45:56.188Z,96.40
2018-02-16T07:48:24.183Z,96.40
2018-02-16T07:50:52.966Z,96.40
2018-02-16T07:53:20.963Z,96.40
2018-02-16T07:55:49.765Z,96.50
2018-02-16T07:58:18.548Z,96.40
2018-02-16T08:00:46.560Z,96.40
2018-02-16T08:03:15.311Z,95.90
2018-02-16T08:05:43.319Z,95.90
2018-02-16T08:08:11.333Z,96.00
2018-02-16T08:10:39.345Z,95.50
2018-02-16T08:13:07.340Z,95.40
2018-02-16T08:15:35.339Z,95.10
2018-02-16T08:18:03.360Z,95.00
2018-02-16T08:20:32.115Z,94.60
2018-02-16T08:23:00.134Z,94.50
2018-02-16T08:25:28.892Z,94.20
2018-02-16T08:27:56.905Z,94.10
2018-02-16T08:30:24.900Z,94.30
2018-02-16T08:32:53.682Z,94.60
2018-02-16T08:35:21.684Z,94.50
2018-02-16T08:37:50.440Z,95.00
2018-02-16T08:40:18.445Z,94.90
2018-02-16T08:42:46.444Z,94.70
2018-02-16T08:45:15.218Z,94.90
2018-02-16T08:47:43.221Z,94.90
2018-02-16T08:50:11.980Z,95.00
2018-02-16T08:52:39.988Z,95.00
2018-02-16T08:55:07.980Z,95.40
2018-02-16T08:57:36.018Z,95.40
2018-02-16T09:00:04.012Z,95.50
2018-02-16T09:02:32.024Z,95.40
2018-02-16T09:05:00.038Z,95.40
2018-02-16T09:07:28.784Z,95.30
2018-02-16T09:09:56.805Z,95.30
2018-02-16T09:12:25.568Z,94.60
2018-02-16T09:14:53.609Z,94.60
2018-02-16T09:17:21.623Z,95.00
2018-02-16T09:19:49.613Z,95.30
2018-02-16T09:22:17.632Z,95.60
2018-02-16T09:24:46.404Z,95.70
2018-02-16T09:27:14.408Z,95.60
2018-02-16T09:29:42.430Z,94.80
2018-02-16T09:32:10.422Z,94.10
2018-02-16T09:34:38.428Z,94.20
2018-02-16T09:37:07.632Z,94.50
2018-02-16T09:39:36.536Z,94.00
2018-02-16T09:42:04.932Z,94.30
2018-02-16T09:44:32.945Z,94.80
2018-02-16T09:47:00.945Z,94.60
2018-02-16T09:49:29.719Z,95.30
2018-02-16T09:51:57.749Z,95.20
2018-02-16T09:54:25.762Z,94.70
2018-02-16T09:56:53.788Z,94.40
2018-02-16T09:59:22.552Z,94.50
2018-02-16T10:01:50.561Z,94.40
2018-02-16T10:04:18.576Z,94.70
2018-02-16T10:06:46.605Z,93.60
2018-02-16T10:09:14.612Z,93.30
2018-02-16T10:11:43.372Z,93.60
2018-02-16T10:14:11.600Z,93.50
2018-02-16T10:16:39.592Z,94.20
2018-02-16T10:19:09.276Z,94.70
2018-02-16T10:21:37.284Z,94.60
2018-02-16T10:24:05.300Z,95.20
2018-02-16T10:26:33.280Z,94.40
2018-02-16T10:29:01.282Z,94.00
2018-02-16T10:31:29.275Z,93.30
2018-02-16T10:33:57.267Z,93.20
2018-02-16T10:36:25.281Z,93.30
2018-02-16T10:38:53.282Z,93.10
2018-02-16T10:41:22.052Z,92.60
2018-02-16T10:43:50.060Z,92.60
2018-02-16T10:46:18.825Z,92.50
2018-02-16T10:48:46.837Z,92.50
2018-02-16T10:51:14.835Z,92.80
2018-02-16T10:53:43.608Z,92.10
2018-02-16T10:56:11.605Z,92.00
2018-02-16T10:58:40.380Z,91.20
2018-02-16T11:01:14.172Z,91.10
2018-02-16T11:03:42.179Z,90.30
2018-02-16T11:06:13.154Z,91.00
2018-02-16T11:08:48.392Z,90.00
2018-02-16T11:11:16.404Z,89.90
2018-02-16T11:13:45.159Z,88.10
2018-02-16T11:16:13.161Z,88.00
2018-02-16T11:18:41.147Z,89.90
2018-02-16T11:21:09.157Z,90.00
2018-02-16T11:23:37.940Z,89.50
2018-02-16T11:26:05.936Z,89.50
2018-02-16T11:28:34.704Z,91.40
2018-02-16T11:31:02.713Z,91.40
2018-02-16T11:33:31.480Z,90.50
2018-02-16T11:35:59.487Z,90.50
2018-02-16T11:38:28.265Z,88.90
2018-02-16T11:40:56.281Z,88.80
2018-02-16T11:43:25.040Z,88.90
2018-02-16T11:45:53.052Z,88.90
2018-02-16T11:48:21.047Z,88.80
2018-02-16T11:50:49.814Z,87.10
2018-02-16T11:53:17.816Z,86.40
2018-02-16T11:55:45.828Z,86.00
2018-02-16T11:58:13.816Z,87.40
2018-02-16T12:00:41.824Z,87.00
2018-02-16T12:03:09.808Z,86.10
2018-02-16T12:05:37.829Z,86.20
2018-02-16T12:08:05.829Z,84.10
2018-02-16T12:10:34.592Z,81.90
2018-02-16T12:13:02.596Z,81.90
2018-02-16T12:15:30.602Z,84.20
2018-02-16T12:17:59.372Z,84.00
2018-02-16T12:20:27.376Z,83.90
2018-02-16T12:22:56.153Z,85.00
2018-02-16T12:25:24.148Z,84.90
2018-02-16T12:27:52.157Z,83.90
2018-02-16T12:30:20.164Z,84.10
2018-02-16T12:32:48.167Z,81.30
2018-02-16T12:35:16.168Z,82.30
2018-02-16T12:37:44.175Z,83.20
2018-02-16T12:40:12.952Z,82.00
2018-02-16T12:42:40.936Z,81.90
2018-02-16T12:45:08.949Z,82.40
2018-02-16T12:47:37.712Z,77.50
2018-02-16T12:50:05.712Z,77.40
2018-02-16T12:52:34.492Z,78.10
2018-02-16T12:55:02.485Z,77.60
2018-02-16T12:57:30.489Z,77.80
2018-02-16T12:59:59.244Z,80.60
2018-02-16T13:02:27.256Z,80.70
2018-02-16T13:04:55.260Z,78.90
2018-02-16T13:07:24.020Z,79.80
2018-02-16T13:09:52.019Z,79.70
2018-02-16T13:12:20.012Z,78.00
2018-02-16T13:14:48.793Z,77.20
2018-02-16T13:17:16.771Z,77.10
2018-02-16T13:19:44.772Z,79.90
2018-02-16T13:22:12.759Z,76.40
2018-02-16T13:24:41.532Z,75.90
2018-02-16T13:27:09.541Z,75.80
2018-02-16T13:29:37.532Z,76.40
2018-02-16T13:32:06.291Z,76.20
2018-02-16T13:34:34.292Z,76.20
2018-02-16T13:37:02.557Z,76.20
2018-02-16T13:39:30.552Z,75.00
2018-02-16T13:41:58.565Z,74.70
2018-02-16T13:44:26.547Z,77.30
2018-02-16T13:46:55.336Z,77.20
2018-02-16T13:49:24.824Z,75.30
2018-02-16T13:51:52.828Z,75.20
2018-02-16T13:54:20.819Z,72.50
2018-02-16T13:56:48.825Z,71.60
2018-02-16T13:59:16.832Z,72.20
2018-02-16T14:01:44.819Z,71.10
2018-02-16T14:04:12.825Z,72.60
2018-02-16T14:06:40.828Z,70.60
2018-02-16T14:09:08.829Z,69.10
2018-02-16T14:11:37.584Z,70.20
2018-02-16T14:14:06.355Z,71.00
2018-02-16T14:16:34.344Z,71.20
2018-02-16T14:19:02.354Z,72.00
2018-02-16T14:21:30.372Z,71.50
2018-02-16T14:23:59.152Z,72.50
2018-02-16T14:26:28.673Z,72.10
2018-02-16T14:28:56.668Z,72.10
2018-02-16T14:31:24.667Z,74.10
2018-02-16T14:33:53.450Z,78.30
2018-02-16T14:36:21.452Z,78.30
2018-02-16T14:38:50.225Z,83.10
2018-02-16T14:41:18.224Z,83.00
2018-02-16T14:43:46.995Z,84.20
2018-02-16T14:46:15.005Z,84.10
2018-02-16T14:48:42.988Z,80.90
2018-02-16T14:51:11.004Z,80.10
2018-02-16T14:53:38.996Z,80.20
2018-02-16T14:56:07.047Z,78.50
2018-02-16T14:58:35.420Z,77.50
2018-02-16T15:01:03.419Z,79.20
2018-02-16T15:03:32.481Z,80.20
2018-02-16T15:06:00.472Z,80.20
2018-02-16T15:08:28.477Z,81.70
2018-02-16T15:10:56.494Z,81.70
2018-02-16T15:13:24.540Z,84.00
2018-02-16T15:15:52.508Z,81.30
2018-02-16T15:18:20.565Z,81.50
2018-02-16T15:20:48.568Z,83.00
2018-02-16T15:23:16.588Z,84.40
2018-02-16T15:25:45.499Z,86.00
2018-02-16T15:28:14.240Z,87.60
2018-02-16T15:30:42.253Z,87.50
2018-02-16T15:33:10.249Z,86.00
2018-02-16T15:35:39.024Z,81.70
2018-02-16T15:38:07.043Z,81.50
2018-02-16T15:40:35.808Z,79.90
2018-02-16T15:43:03.816Z,79.90
2018-02-16T15:45:32.583Z,81.00
2018-02-16T15:48:00.594Z,81.00
2018-02-16T15:50:28.581Z,78.70
2018-02-16T15:52:56.591Z,78.80
2018-02-16T15:55:24.576Z,78.00
2018-02-16T15:57:52.588Z,78.40
2018-02-16T16:00:20.606Z,79.90
2018-02-16T16:02:48.595Z,76.90
2018-02-16T16:05:17.378Z,79.60
2018-02-16T16:07:45.381Z,78.80
2018-02-16T16:10:14.148Z,82.90
2018-02-16T16:12:42.172Z,82.80
2018-02-16T16:15:10.957Z,83.20
2018-02-16T16:17:38.968Z,83.10
2018-02-16T16:20:06.960Z,82.50
2018-02-16T16:22:34.967Z,82.70
2018-02-16T16:25:02.964Z,82.90
2018-02-16T16:27:30.964Z,82.70
2018-02-16T16:29:58.969Z,83.80
2018-02-16T16:32:27.723Z,85.30
2018-02-16T16:34:55.732Z,85.20
2018-02-16T16:37:23.759Z,85.20
2018-02-16T16:39:51.753Z,85.20
2018-02-16T16:42:19.811Z,85.20
2018-02-16T16:44:47.788Z,84.20
2018-02-16T16:47:15.821Z,84.40
2018-02-16T16:49:43.816Z,84.90
2018-02-16T16:52:11.836Z,84.80
2018-02-16T16:54:40.604Z,85.90
2018-02-16T16:57:08.604Z,85.90
2018-02-16T16:59:36.615Z,85.50
2018-02-16T17:02:04.618Z,84.70
2018-02-16T17:04:32.616Z,84.70
2018-02-16T17:07:00.613Z,84.90
2018-02-16T17:09:28.616Z,85.10
2018-02-16T17:11:57.408Z,85.50
2018-02-16T17:14:25.400Z,85.40
2018-02-16T17:16:54.196Z,84.50
2018-02-16T17:19:22.180Z,84.40
2018-02-16T17:21:50.207Z,84.40
2018-02-16T17:24:18.214Z,84.50
2018-02-16T17:26:46.212Z,84.90
2018-02-16T17:29:14.224Z,84.70
2018-02-16T17:31:42.988Z,84.50
2018-02-16T17:34:11.000Z,84.40
2018-02-16T17:36:39.783Z,86.30
2018-02-16T17:39:07.784Z,86.30
2018-02-16T17:41:35.786Z,86.30
2018-02-16T17:44:03.792Z,86.20
2018-02-16T17:46:31.802Z,85.90
2018-02-16T17:48:59.808Z,85.90
2018-02-16T17:51:27.804Z,86.30
2018-02-16T17:53:56.569Z,87.10
2018-02-16T17:56:24.572Z,87.10
2018-02-16T17:58:52.592Z,87.40
2018-02-16T18:01:20.602Z,89.00
2018-02-16T18:03:48.666Z,90.00
2018-02-16T18:06:16.654Z,90.90
2018-02-16T18:08:44.678Z,90.50
2018-02-16T18:11:12.690Z,89.50
2018-02-16T18:13:41.449Z,88.60
2018-02-16T18:16:09.461Z,88.50
2018-02-16T18:18:38.220Z,90.20
2018-02-16T18:21:06.230Z,90.10
2018-02-16T18:23:35.723Z,89.90
2018-02-16T18:26:03.739Z,89.90
2018-02-16T18:28:32.520Z,89.20
2018-02-16T18:31:00.520Z,89.70
2018-02-16T18:33:28.540Z,89.10
2018-02-16T18:35:56.543Z,88.50
2018-02-16T18:38:24.549Z,88.90
2018-02-16T18:40:52.568Z,89.20
2018-02-16T18:43:21.340Z,87.90
2018-02-16T18:45:49.362Z,87.90
2018-02-16T18:48:18.112Z,87.40
2018-02-16T18:50:46.116Z,87.40
2018-02-16T18:53:14.131Z,87.40
2018-02-16T18:55:42.883Z,89.20
2018-02-16T18:58:10.901Z,89.10
2018-02-16T19:00:39.648Z,89.90
2018-02-16T19:03:07.682Z,89.70
2018-02-16T19:05:36.461Z,89.40
2018-02-16T19:08:04.481Z,89.30
2018-02-16T19:10:32.480Z,89.20
2018-02-16T19:13:00.501Z,89.00
2018-02-16T19:15:28.484Z,89.30
2018-02-16T19:17:56.504Z,89.80
2018-02-16T19:20:24.514Z,90.10
2018-02-16T19:22:52.529Z,90.40
2018-02-16T19:25:20.524Z,91.60
2018-02-16T19:27:48.540Z,91.40
2018-02-16T19:30:16.540Z,91.30
2018-02-16T19:32:44.572Z,90.90
2018-02-16T19:35:12.596Z,90.40
2018-02-16T19:37:40.596Z,90.50
2018-02-16T19:40:08.617Z,90.40
2018-02-16T19:42:36.612Z,90.40
2018-02-16T19:45:04.615Z,90.40
2018-02-16T19:47:33.367Z,89.30
2018-02-16T19:50:01.377Z,89.30
2018-02-16T19:52:29.385Z,89.40
2018-02-16T19:54:57.384Z,89.50
2018-02-16T19:57:25.388Z,89.90
2018-02-16T19:59:53.444Z,90.30
2018-02-16T20:02:21.465Z,90.80
2018-02-16T20:04:49.456Z,92.20
2018-02-16T20:07:17.466Z,92.10
2018-02-16T20:09:46.244Z,90.90
2018-02-16T20:12:14.274Z,90.80
2018-02-16T20:14:42.256Z,90.30
2018-02-16T20:17:10.288Z,90.60
2018-02-16T20:19:38.301Z,92.10
2018-02-16T20:22:07.073Z,92.70
2018-02-16T20:24:35.084Z,92.70
2018-02-16T20:27:03.095Z,92.20
2018-02-16T20:29:31.117Z,91.90
2018-02-16T20:31:59.131Z,91.60
2018-02-16T20:34:27.120Z,91.70
2018-02-16T20:36:55.908Z,91.90
2018-02-16T20:39:24.735Z,91.60
2018-02-16T20:41:52.753Z,91.60
2018-02-16T20:44:20.774Z,91.80
2018-02-16T20:46:49.560Z,92.70
2018-02-16T20:49:17.704Z,92.50
2018-02-16T20:51:45.711Z,92.20
2018-02-16T20:54:13.727Z,92.10
2018-02-16T20:56:42.532Z,93.20
2018-02-16T20:59:11.304Z,93.40
2018-02-16T21:01:39.328Z,93.40
2018-02-16T21:04:08.090Z,92.80
2018-02-16T21:06:36.104Z,92.80
2018-02-16T21:09:04.894Z,92.50
2018-02-16T21:11:32.897Z,92.40
2018-02-16T21:14:01.672Z,92.30
2018-02-16T21:16:29.668Z,92.30
2018-02-16T21:18:58.443Z,92.40
2018-02-16T21:21:26.608Z,92.40
2018-02-16T21:23:54.629Z,92.80
2018-02-16T21:26:22.639Z,93.40
2018-02-16T21:28:50.643Z,93.60
2018-02-16T21:31:18.656Z,93.60
2018-02-16T21:33:46.662Z,93.70
2018-02-16T21:36:14.676Z,93.40
2018-02-16T21:38:42.686Z,93.60
2018-02-16T21:41:10.728Z,94.10
2018-02-16T21:43:39.495Z,94.40
2018-02-16T21:46:07.513Z,94.40
2018-02-16T21:48:36.280Z,94.20
2018-02-16T21:51:04.285Z,94.10
2018-02-16T21:53:33.073Z,93.90
2018-02-16T21:56:01.081Z,93.80
2018-02-16T21:58:29.900Z,93.40
2018-02-16T22:00:57.909Z,93.40
2018-02-16T22:03:25.916Z,93.50
2018-02-16T22:05:53.932Z,93.80
2018-02-16T22:08:22.696Z,93.90
2018-02-16T22:10:50.729Z,93.90
2018-02-16T22:13:18.716Z,93.20
2018-02-16T22:15:46.748Z,93.40
2018-02-16T22:18:14.748Z,93.10
2018-02-16T22:20:43.520Z,92.80
2018-02-16T22:23:11.521Z,92.80
2018-02-16T22:25:39.553Z,92.40
2018-02-16T22:28:07.572Z,92.40
2018-02-16T22:30:35.584Z,92.30
2018-02-16T22:33:04.364Z,92.30
2018-02-16T22:35:32.375Z,92.20
2018-02-16T22:38:01.139Z,91.50
2018-02-16T22:40:29.481Z,91.50
2018-02-16T22:42:57.477Z,91.10
2018-02-16T22:45:25.491Z,90.90
2018-02-16T22:47:57.510Z,91.00
2018-02-16T22:50:25.668Z,91.80
2018-02-16T22:52:53.692Z,91.90
2018-02-16T22:55:22.515Z,91.40
2018-02-16T22:57:50.539Z,91.40
2018-02-16T23:00:18.557Z,91.50
2018-02-16T23:02:46.596Z,91.10
2018-02-16T23:05:14.658Z,91.00
2018-02-16T23:07:43.385Z,91.00
2018-02-16T23:10:11.393Z,91.00
2018-02-16T23:12:40.172Z,91.10
2018-02-16T23:15:08.964Z,91.00
2018-02-16T23:17:36.976Z,91.00
2018-02-16T23:20:05.774Z,91.00
2018-02-16T23:22:34.548Z,91.20
2018-02-16T23:25:02.558Z,91.20
2018-02-16T23:27:31.340Z,90.80
2018-02-16T23:29:59.344Z,90.80
2018-02-16T23:32:28.250Z,90.60
2018-02-16T23:34:57.036Z,90.50
2018-02-16T23:37:25.029Z,90.40
2018-02-16T23:39:53.808Z,90.60
2018-02-16T23:42:21.808Z,90.60
2018-02-16T23:44:50.553Z,90.70
2018-02-16T23:47:18.583Z,90.60
2018-02-16T23:49:46.588Z,90.70
2018-02-16T23:52:14.593Z,90.90
2018-02-16T23:54:42.593Z,91.20
2018-02-16T23:57:11.374Z,91.10
2018-02-16T23:59:39.383Z,91.00
